RYR14KP LIMC-LICA
Flight info
| Callsign | RYR14KP |
|---|---|
| Flight time | 1h 31m |
| Altitude | 39000 |
| Route | ROBAS DCT LOGDI DCT EKDIR DCT POLIT DCT EVINO/N0341F190 M620 ARBUM |
| Aircraft | B38M/M-SADE3FGIJ1LRWY/SB1 |
Departure
| Time | 2026-04-26 10:03 |
|---|---|
| Airport | Milan Malpensa International Airport (LIMC) |
Arrival
| Time | 2026-04-26 11:34 |
|---|---|
| Airport | Lamezia Terme Sant'Eufemia International Airport (LICA) |
| Time | Latitude | Longitude | Altitude | Speed | Heading |
|---|---|---|---|---|---|
| 2026-04-26 09:22 | 45.62823 | 8.71670 | 739 ft | 0 kts | 258° |
| 2026-04-26 09:43 | 45.62825 | 8.71702 | 736 ft | 4 kts | 273° |
| 2026-04-26 09:43 | 45.62824 | 8.71739 | 736 ft | 2 kts | 264° |
| 2026-04-26 09:43 | 45.62830 | 8.71769 | 738 ft | 4 kts | 224° |
| 2026-04-26 09:43 | 45.62851 | 8.71776 | 737 ft | 4 kts | 168° |
| 2026-04-26 09:44 | 45.62875 | 8.71770 | 739 ft | 2 kts | 180° |
| 2026-04-26 09:44 | 45.62854 | 8.71774 | 737 ft | 4 kts | 169° |
| 2026-04-26 09:44 | 45.62847 | 8.71776 | 736 ft | 0 kts | 169° |
| 2026-04-26 09:48 | 45.62845 | 8.71776 | 736 ft | 1 kts | 169° |
| 2026-04-26 09:48 | 45.62830 | 8.71780 | 737 ft | 5 kts | 169° |
| 2026-04-26 09:48 | 45.62764 | 8.71798 | 739 ft | 14 kts | 169° |
| 2026-04-26 09:49 | 45.62633 | 8.71833 | 739 ft | 24 kts | 169° |
| 2026-04-26 09:49 | 45.62501 | 8.71871 | 739 ft | 20 kts | 168° |
| 2026-04-26 09:49 | 45.62359 | 8.71910 | 738 ft | 22 kts | 171° |
| 2026-04-26 09:49 | 45.62210 | 8.71950 | 739 ft | 21 kts | 168° |
| 2026-04-26 09:50 | 45.62064 | 8.71992 | 739 ft | 20 kts | 169° |
| 2026-04-26 09:50 | 45.61923 | 8.72031 | 739 ft | 21 kts | 169° |
| 2026-04-26 09:50 | 45.61771 | 8.72072 | 739 ft | 23 kts | 170° |
| 2026-04-26 09:50 | 45.61607 | 8.72116 | 739 ft | 25 kts | 168° |
| 2026-04-26 09:51 | 45.61446 | 8.72163 | 739 ft | 23 kts | 168° |
| 2026-04-26 09:51 | 45.61299 | 8.72205 | 739 ft | 22 kts | 168° |
| 2026-04-26 09:51 | 45.61141 | 8.72247 | 739 ft | 24 kts | 170° |
| 2026-04-26 09:51 | 45.60973 | 8.72290 | 739 ft | 21 kts | 169° |
| 2026-04-26 09:52 | 45.60828 | 8.72333 | 739 ft | 22 kts | 168° |
| 2026-04-26 09:52 | 45.60629 | 8.72604 | 740 ft | 24 kts | 96° |
| 2026-04-26 09:52 | 45.60611 | 8.72849 | 740 ft | 25 kts | 96° |
| 2026-04-26 09:53 | 45.60593 | 8.73101 | 740 ft | 22 kts | 96° |
| 2026-04-26 09:53 | 45.60650 | 8.73281 | 740 ft | 22 kts | 24° |
| 2026-04-26 09:53 | 45.60793 | 8.73369 | 738 ft | 23 kts | 22° |
| 2026-04-26 09:53 | 45.60953 | 8.73394 | 740 ft | 24 kts | 349° |
| 2026-04-26 09:54 | 45.61123 | 8.73348 | 740 ft | 26 kts | 349° |
| 2026-04-26 09:54 | 45.61283 | 8.73300 | 739 ft | 24 kts | 348° |
| 2026-04-26 09:54 | 45.61451 | 8.73254 | 739 ft | 25 kts | 349° |
| 2026-04-26 09:54 | 45.61580 | 8.73225 | 739 ft | 14 kts | 6° |
| 2026-04-26 09:55 | 45.61625 | 8.73317 | 739 ft | 12 kts | 76° |
| 2026-04-26 09:55 | 45.61629 | 8.73431 | 738 ft | 8 kts | 112° |
| 2026-04-26 09:55 | 45.61620 | 8.73456 | 739 ft | 1 kts | 121° |
| 2026-04-26 09:55 | 45.61619 | 8.73458 | 739 ft | 0 kts | 121° |
| 2026-04-26 10:00 | 45.61602 | 8.73497 | 739 ft | 10 kts | 121° |
| 2026-04-26 10:01 | 45.61583 | 8.73602 | 740 ft | 1 kts | 83° |
| 2026-04-26 10:01 | 45.61584 | 8.73612 | 740 ft | 2 kts | 82° |
| 2026-04-26 10:02 | 45.61585 | 8.73615 | 740 ft | 1 kts | 82° |
| 2026-04-26 10:02 | 45.61590 | 8.73673 | 739 ft | 11 kts | 82° |
| 2026-04-26 10:02 | 45.61661 | 8.73729 | 739 ft | 16 kts | 349° |
| 2026-04-26 10:02 | 45.61890 | 8.73665 | 739 ft | 64 kts | 349° |
| 2026-04-26 10:03 | 45.62535 | 8.73486 | 741 ft | 123 kts | 349° |
| 2026-04-26 10:03 | 45.63531 | 8.73219 | 770 ft | 164 kts | 350° |
| 2026-04-26 10:03 | 45.64702 | 8.72931 | 1225 ft | 173 kts | 351° |
| 2026-04-26 10:03 | 45.65498 | 8.72784 | 1644 ft | 174 kts | 356° |
| 2026-04-26 10:04 | 45.67114 | 8.72841 | 2470 ft | 175 kts | 21° |
| 2026-04-26 10:04 | 45.68132 | 8.73802 | 3024 ft | 187 kts | 50° |
| 2026-04-26 10:04 | 45.68740 | 8.75544 | 3512 ft | 205 kts | 78° |
| 2026-04-26 10:04 | 45.69003 | 8.77576 | 4132 ft | 207 kts | 74° |
| 2026-04-26 10:05 | 45.69552 | 8.79526 | 4574 ft | 221 kts | 53° |
| 2026-04-26 10:05 | 45.70672 | 8.81046 | 4735 ft | 232 kts | 40° |
| 2026-04-26 10:05 | 45.71856 | 8.82627 | 5350 ft | 232 kts | 51° |
| 2026-04-26 10:05 | 45.72570 | 8.84696 | 6016 ft | 237 kts | 78° |
| 2026-04-26 10:06 | 45.72466 | 8.87043 | 6661 ft | 241 kts | 108° |
| 2026-04-26 10:06 | 45.71536 | 8.89041 | 7256 ft | 246 kts | 138° |
| 2026-04-26 10:06 | 45.70001 | 8.90110 | 7859 ft | 250 kts | 169° |
| 2026-04-26 10:06 | 45.68242 | 8.90236 | 8478 ft | 256 kts | 177° |
| 2026-04-26 10:07 | 45.66464 | 8.90347 | 9324 ft | 256 kts | 177° |
| 2026-04-26 10:07 | 45.64672 | 8.90473 | 10081 ft | 260 kts | 176° |
| 2026-04-26 10:07 | 45.62853 | 8.90608 | 10790 ft | 262 kts | 176° |
| 2026-04-26 10:07 | 45.61025 | 8.90745 | 11530 ft | 265 kts | 176° |
| 2026-04-26 10:08 | 45.59163 | 8.90911 | 12183 ft | 274 kts | 175° |
| 2026-04-26 10:08 | 45.57194 | 8.91133 | 12571 ft | 293 kts | 175° |
| 2026-04-26 10:08 | 45.55088 | 8.91366 | 12921 ft | 313 kts | 175° |
| 2026-04-26 10:08 | 45.52860 | 8.91656 | 13308 ft | 330 kts | 169° |
| 2026-04-26 10:09 | 45.50704 | 8.92866 | 13897 ft | 339 kts | 146° |
| 2026-04-26 10:09 | 45.49024 | 8.95216 | 14615 ft | 342 kts | 124° |
| 2026-04-26 10:09 | 45.47844 | 8.98181 | 15270 ft | 347 kts | 118° |
| 2026-04-26 10:09 | 45.46678 | 9.01219 | 15981 ft | 351 kts | 118° |
| 2026-04-26 10:10 | 45.45507 | 9.04293 | 16691 ft | 356 kts | 118° |
| 2026-04-26 10:10 | 45.44323 | 9.07413 | 17371 ft | 360 kts | 118° |
| 2026-04-26 10:10 | 45.43128 | 9.10567 | 18031 ft | 365 kts | 118° |
| 2026-04-26 10:10 | 45.41917 | 9.13761 | 18638 ft | 369 kts | 118° |
| 2026-04-26 10:11 | 45.40690 | 9.16994 | 19212 ft | 372 kts | 118° |
| 2026-04-26 10:11 | 45.39452 | 9.20253 | 19786 ft | 376 kts | 118° |
| 2026-04-26 10:11 | 45.38203 | 9.23537 | 20336 ft | 379 kts | 118° |
| 2026-04-26 10:11 | 45.36944 | 9.26843 | 20895 ft | 383 kts | 118° |
| 2026-04-26 10:12 | 45.35674 | 9.30176 | 21447 ft | 386 kts | 118° |
| 2026-04-26 10:12 | 45.34385 | 9.33553 | 22001 ft | 390 kts | 118° |
| 2026-04-26 10:12 | 45.33083 | 9.36958 | 22562 ft | 393 kts | 118° |
| 2026-04-26 10:12 | 45.31771 | 9.40388 | 23113 ft | 397 kts | 118° |
| 2026-04-26 10:13 | 45.30448 | 9.43839 | 23657 ft | 400 kts | 118° |
| 2026-04-26 10:13 | 45.29109 | 9.47331 | 24118 ft | 404 kts | 118° |
| 2026-04-26 10:13 | 45.27760 | 9.50843 | 24586 ft | 407 kts | 118° |
| 2026-04-26 10:13 | 45.26401 | 9.54377 | 25062 ft | 409 kts | 118° |
| 2026-04-26 10:14 | 45.25031 | 9.57934 | 25502 ft | 412 kts | 119° |
| 2026-04-26 10:14 | 45.23649 | 9.61519 | 25965 ft | 415 kts | 119° |
| 2026-04-26 10:14 | 45.22260 | 9.65120 | 26399 ft | 418 kts | 119° |
| 2026-04-26 10:14 | 45.20858 | 9.68747 | 26848 ft | 420 kts | 119° |
| 2026-04-26 10:15 | 45.19216 | 9.72159 | 27249 ft | 422 kts | 135° |
| 2026-04-26 10:15 | 45.16968 | 9.74803 | 27689 ft | 422 kts | 146° |
| 2026-04-26 10:15 | 45.14570 | 9.77247 | 28045 ft | 426 kts | 146° |
| 2026-04-26 10:15 | 45.12144 | 9.79694 | 28469 ft | 428 kts | 146° |
| 2026-04-26 10:16 | 45.09703 | 9.82124 | 28897 ft | 431 kts | 146° |
| 2026-04-26 10:16 | 45.07236 | 9.84558 | 29293 ft | 433 kts | 147° |
| 2026-04-26 10:16 | 45.04755 | 9.86998 | 29683 ft | 436 kts | 147° |
| 2026-04-26 10:16 | 45.02292 | 9.89417 | 30068 ft | 438 kts | 147° |
| 2026-04-26 10:17 | 44.99778 | 9.91883 | 30399 ft | 441 kts | 147° |
| 2026-04-26 10:17 | 44.97254 | 9.94354 | 30723 ft | 443 kts | 147° |
| 2026-04-26 10:17 | 44.94684 | 9.96869 | 31078 ft | 444 kts | 147° |
| 2026-04-26 10:17 | 44.92137 | 9.99357 | 31410 ft | 446 kts | 147° |
| 2026-04-26 10:18 | 44.89614 | 10.01820 | 31744 ft | 448 kts | 147° |
| 2026-04-26 10:18 | 44.87042 | 10.04327 | 32060 ft | 450 kts | 147° |
| 2026-04-26 10:18 | 44.84462 | 10.06840 | 32383 ft | 452 kts | 147° |
| 2026-04-26 10:18 | 44.81873 | 10.09359 | 32685 ft | 454 kts | 147° |
| 2026-04-26 10:19 | 44.79272 | 10.11886 | 32990 ft | 456 kts | 147° |
| 2026-04-26 10:19 | 44.76654 | 10.14428 | 33294 ft | 457 kts | 147° |
| 2026-04-26 10:19 | 44.74031 | 10.16972 | 33587 ft | 459 kts | 147° |
| 2026-04-26 10:19 | 44.71408 | 10.19548 | 33920 ft | 460 kts | 145° |
| 2026-04-26 10:20 | 44.68825 | 10.22203 | 34302 ft | 459 kts | 145° |
| 2026-04-26 10:20 | 44.67082 | 10.23986 | 34540 ft | 459 kts | 145° |
| 2026-04-26 10:20 | 44.63671 | 10.27462 | 34999 ft | 458 kts | 146° |
| 2026-04-26 10:20 | 44.61087 | 10.30090 | 35323 ft | 457 kts | 146° |
| 2026-04-26 10:21 | 44.58510 | 10.32707 | 35655 ft | 457 kts | 146° |
| 2026-04-26 10:21 | 44.55941 | 10.35313 | 35981 ft | 456 kts | 146° |
| 2026-04-26 10:21 | 44.53372 | 10.37915 | 36295 ft | 455 kts | 146° |
| 2026-04-26 10:21 | 44.50802 | 10.40517 | 36616 ft | 455 kts | 146° |
| 2026-04-26 10:22 | 44.48239 | 10.43109 | 36914 ft | 454 kts | 146° |
| 2026-04-26 10:22 | 44.45674 | 10.45698 | 37222 ft | 454 kts | 146° |
| 2026-04-26 10:22 | 44.43118 | 10.48277 | 37517 ft | 453 kts | 146° |
| 2026-04-26 10:22 | 44.40561 | 10.50853 | 37806 ft | 453 kts | 146° |
| 2026-04-26 10:23 | 44.38006 | 10.53426 | 38073 ft | 452 kts | 146° |
| 2026-04-26 10:23 | 44.35458 | 10.55987 | 38335 ft | 451 kts | 146° |
| 2026-04-26 10:23 | 44.32908 | 10.58548 | 38581 ft | 451 kts | 146° |
| 2026-04-26 10:23 | 44.30363 | 10.61101 | 38807 ft | 451 kts | 146° |
| 2026-04-26 10:24 | 44.27820 | 10.63649 | 39021 ft | 450 kts | 146° |
| 2026-04-26 10:24 | 44.25277 | 10.66196 | 39186 ft | 450 kts | 146° |
| 2026-04-26 10:24 | 44.20220 | 10.71353 | 39250 ft | 451 kts | 142° |
| 2026-04-26 10:25 | 44.15332 | 10.76812 | 39249 ft | 450 kts | 143° |
| 2026-04-26 10:25 | 44.10428 | 10.82217 | 39241 ft | 450 kts | 143° |
| 2026-04-26 10:26 | 44.05511 | 10.87619 | 39210 ft | 450 kts | 143° |
| 2026-04-26 10:26 | 44.00601 | 10.93001 | 39189 ft | 450 kts | 143° |
| 2026-04-26 10:27 | 43.95686 | 10.98375 | 39171 ft | 449 kts | 143° |
| 2026-04-26 10:27 | 43.90773 | 11.03738 | 39157 ft | 449 kts | 143° |
| 2026-04-26 10:28 | 43.85858 | 11.09090 | 39156 ft | 449 kts | 143° |
| 2026-04-26 10:28 | 43.80977 | 11.14393 | 39158 ft | 449 kts | 143° |
| 2026-04-26 10:29 | 43.76063 | 11.19722 | 39157 ft | 449 kts | 143° |
| 2026-04-26 10:29 | 43.71150 | 11.25037 | 39158 ft | 448 kts | 143° |
| 2026-04-26 10:30 | 43.66233 | 11.30346 | 39158 ft | 448 kts | 143° |
| 2026-04-26 10:30 | 43.61314 | 11.35646 | 39157 ft | 448 kts | 143° |
| 2026-04-26 10:31 | 43.56395 | 11.40934 | 39162 ft | 449 kts | 143° |
| 2026-04-26 10:31 | 43.51471 | 11.46216 | 39160 ft | 449 kts | 143° |
| 2026-04-26 10:32 | 43.46549 | 11.51486 | 39151 ft | 448 kts | 143° |
| 2026-04-26 10:32 | 43.41625 | 11.56745 | 39153 ft | 448 kts | 143° |
| 2026-04-26 10:33 | 43.36703 | 11.61992 | 39159 ft | 448 kts | 143° |
| 2026-04-26 10:33 | 43.31775 | 11.67235 | 39156 ft | 448 kts | 143° |
| 2026-04-26 10:34 | 43.26846 | 11.72466 | 39153 ft | 448 kts | 143° |
| 2026-04-26 10:34 | 43.21914 | 11.77691 | 39155 ft | 448 kts | 143° |
| 2026-04-26 10:35 | 43.17785 | 11.82057 | 39151 ft | 447 kts | 143° |
| 2026-04-26 10:35 | 43.12887 | 11.87225 | 39151 ft | 447 kts | 143° |
| 2026-04-26 10:36 | 43.07958 | 11.92415 | 39152 ft | 447 kts | 143° |
| 2026-04-26 10:36 | 43.03022 | 11.97602 | 39145 ft | 447 kts | 143° |
| 2026-04-26 10:37 | 42.98091 | 12.02772 | 39145 ft | 447 kts | 143° |
| 2026-04-26 10:37 | 42.93160 | 12.07933 | 39144 ft | 446 kts | 143° |
| 2026-04-26 10:38 | 42.88232 | 12.13079 | 39144 ft | 446 kts | 143° |
| 2026-04-26 10:38 | 42.83302 | 12.18217 | 39141 ft | 446 kts | 143° |
| 2026-04-26 10:39 | 42.78378 | 12.23337 | 39142 ft | 446 kts | 143° |
| 2026-04-26 10:39 | 42.73444 | 12.28458 | 39142 ft | 446 kts | 143° |
| 2026-04-26 10:40 | 42.68511 | 12.33567 | 39144 ft | 446 kts | 143° |
| 2026-04-26 10:40 | 42.63574 | 12.38671 | 39141 ft | 446 kts | 143° |
| 2026-04-26 10:41 | 42.58631 | 12.43770 | 39141 ft | 446 kts | 143° |
| 2026-04-26 10:41 | 42.53684 | 12.48862 | 39145 ft | 446 kts | 143° |
| 2026-04-26 10:42 | 42.48740 | 12.53940 | 39147 ft | 446 kts | 142° |
| 2026-04-26 10:42 | 42.43798 | 12.59007 | 39151 ft | 445 kts | 142° |
| 2026-04-26 10:43 | 42.38892 | 12.64026 | 39150 ft | 445 kts | 143° |
| 2026-04-26 10:43 | 42.33926 | 12.69097 | 39153 ft | 444 kts | 143° |
| 2026-04-26 10:44 | 42.29019 | 12.74098 | 39153 ft | 444 kts | 142° |
| 2026-04-26 10:44 | 42.24089 | 12.79111 | 39152 ft | 444 kts | 143° |
| 2026-04-26 10:45 | 42.19156 | 12.84118 | 39151 ft | 443 kts | 142° |
| 2026-04-26 10:45 | 42.14236 | 12.89102 | 39143 ft | 443 kts | 142° |
| 2026-04-26 10:46 | 42.09310 | 12.94081 | 39145 ft | 442 kts | 142° |
| 2026-04-26 10:46 | 42.04386 | 12.99049 | 39144 ft | 442 kts | 142° |
| 2026-04-26 10:47 | 41.99464 | 13.04005 | 39145 ft | 441 kts | 142° |
| 2026-04-26 10:47 | 41.94552 | 13.08940 | 39144 ft | 441 kts | 142° |
| 2026-04-26 10:48 | 41.89641 | 13.13866 | 39149 ft | 440 kts | 142° |
| 2026-04-26 10:48 | 41.84739 | 13.18774 | 39146 ft | 440 kts | 142° |
| 2026-04-26 10:49 | 41.79835 | 13.23672 | 39149 ft | 439 kts | 142° |
| 2026-04-26 10:49 | 41.74933 | 13.28560 | 39153 ft | 439 kts | 142° |
| 2026-04-26 10:50 | 41.70857 | 13.32616 | 39151 ft | 439 kts | 142° |
| 2026-04-26 10:50 | 41.65133 | 13.38302 | 39150 ft | 439 kts | 142° |
| 2026-04-26 10:51 | 41.57776 | 13.45591 | 39154 ft | 438 kts | 142° |
| 2026-04-26 10:52 | 41.52875 | 13.50435 | 39154 ft | 439 kts | 142° |
| 2026-04-26 10:52 | 41.47967 | 13.55276 | 39155 ft | 438 kts | 142° |
| 2026-04-26 10:53 | 41.43092 | 13.60077 | 39158 ft | 438 kts | 143° |
| 2026-04-26 10:53 | 41.38186 | 13.64897 | 39155 ft | 438 kts | 143° |
| 2026-04-26 10:54 | 41.30829 | 13.72110 | 39157 ft | 438 kts | 142° |
| 2026-04-26 10:54 | 41.25921 | 13.76910 | 39153 ft | 438 kts | 142° |
| 2026-04-26 10:55 | 41.21014 | 13.81700 | 39162 ft | 438 kts | 143° |
| 2026-04-26 10:55 | 41.16106 | 13.86481 | 39159 ft | 437 kts | 143° |
| 2026-04-26 10:56 | 41.11198 | 13.91255 | 39159 ft | 437 kts | 143° |
| 2026-04-26 10:56 | 41.06287 | 13.96021 | 39156 ft | 437 kts | 143° |
| 2026-04-26 10:57 | 41.01377 | 14.00778 | 39158 ft | 437 kts | 143° |
| 2026-04-26 10:57 | 40.96465 | 14.05527 | 39159 ft | 437 kts | 143° |
| 2026-04-26 10:58 | 40.91551 | 14.10270 | 39157 ft | 437 kts | 143° |
| 2026-04-26 10:58 | 40.86636 | 14.15005 | 39161 ft | 437 kts | 143° |
| 2026-04-26 10:59 | 40.81709 | 14.19741 | 39159 ft | 437 kts | 143° |
| 2026-04-26 10:59 | 40.76792 | 14.24460 | 39155 ft | 437 kts | 143° |
| 2026-04-26 11:00 | 40.71868 | 14.29177 | 39158 ft | 437 kts | 143° |
| 2026-04-26 11:00 | 40.66944 | 14.33885 | 39162 ft | 437 kts | 143° |
| 2026-04-26 11:01 | 40.62021 | 14.38583 | 39161 ft | 437 kts | 143° |
| 2026-04-26 11:01 | 40.57090 | 14.43280 | 39161 ft | 437 kts | 143° |
| 2026-04-26 11:02 | 40.52167 | 14.47961 | 39167 ft | 438 kts | 143° |
| 2026-04-26 11:02 | 40.47230 | 14.52649 | 39167 ft | 438 kts | 143° |
| 2026-04-26 11:03 | 40.42325 | 14.57298 | 39169 ft | 438 kts | 143° |
| 2026-04-26 11:03 | 40.37387 | 14.61969 | 39171 ft | 438 kts | 143° |
| 2026-04-26 11:04 | 40.32446 | 14.66634 | 39174 ft | 438 kts | 143° |
| 2026-04-26 11:04 | 40.27500 | 14.71297 | 39176 ft | 439 kts | 143° |
| 2026-04-26 11:05 | 40.22533 | 14.75966 | 39174 ft | 441 kts | 143° |
| 2026-04-26 11:05 | 40.17553 | 14.80646 | 39118 ft | 440 kts | 143° |
| 2026-04-26 11:06 | 40.15069 | 14.83001 | 38277 ft | 442 kts | 140° |
| 2026-04-26 11:06 | 40.13526 | 14.84751 | 37552 ft | 446 kts | 136° |
| 2026-04-26 11:06 | 40.10393 | 14.88379 | 36317 ft | 451 kts | 137° |
| 2026-04-26 11:06 | 40.08039 | 14.91057 | 35728 ft | 448 kts | 137° |
| 2026-04-26 11:07 | 40.05686 | 14.93714 | 35062 ft | 447 kts | 137° |
| 2026-04-26 11:07 | 40.03341 | 14.96353 | 34524 ft | 443 kts | 137° |
| 2026-04-26 11:07 | 40.01020 | 14.98962 | 34047 ft | 437 kts | 137° |
| 2026-04-26 11:07 | 39.98725 | 15.01538 | 33494 ft | 433 kts | 137° |
| 2026-04-26 11:08 | 39.96452 | 15.04086 | 32963 ft | 429 kts | 137° |
| 2026-04-26 11:08 | 39.94207 | 15.06602 | 32477 ft | 424 kts | 137° |
| 2026-04-26 11:08 | 39.91978 | 15.09097 | 31999 ft | 420 kts | 137° |
| 2026-04-26 11:08 | 39.89772 | 15.11565 | 31507 ft | 416 kts | 137° |
| 2026-04-26 11:09 | 39.87589 | 15.14003 | 31052 ft | 412 kts | 137° |
| 2026-04-26 11:09 | 39.85420 | 15.16426 | 30591 ft | 409 kts | 137° |
| 2026-04-26 11:09 | 39.83270 | 15.18824 | 30115 ft | 406 kts | 137° |
| 2026-04-26 11:09 | 39.81135 | 15.21203 | 29607 ft | 402 kts | 137° |
| 2026-04-26 11:10 | 39.79021 | 15.23558 | 29163 ft | 398 kts | 137° |
| 2026-04-26 11:10 | 39.76931 | 15.25883 | 28742 ft | 393 kts | 137° |
| 2026-04-26 11:10 | 39.74865 | 15.28180 | 28316 ft | 389 kts | 137° |
| 2026-04-26 11:10 | 39.72820 | 15.30453 | 27904 ft | 385 kts | 137° |
| 2026-04-26 11:11 | 39.70796 | 15.32708 | 27441 ft | 383 kts | 137° |
| 2026-04-26 11:11 | 39.68787 | 15.34950 | 27133 ft | 376 kts | 137° |
| 2026-04-26 11:11 | 39.66834 | 15.37129 | 26979 ft | 367 kts | 137° |
| 2026-04-26 11:11 | 39.64897 | 15.39289 | 26465 ft | 368 kts | 137° |
| 2026-04-26 11:12 | 39.62957 | 15.41449 | 26023 ft | 367 kts | 137° |
| 2026-04-26 11:12 | 39.61025 | 15.43598 | 25628 ft | 365 kts | 137° |
| 2026-04-26 11:12 | 39.59105 | 15.45734 | 25249 ft | 363 kts | 137° |
| 2026-04-26 11:12 | 39.57193 | 15.47858 | 24875 ft | 361 kts | 137° |
| 2026-04-26 11:13 | 39.55291 | 15.49969 | 24492 ft | 359 kts | 137° |
| 2026-04-26 11:13 | 39.53395 | 15.52073 | 24118 ft | 358 kts | 137° |
| 2026-04-26 11:13 | 39.51536 | 15.54135 | 23742 ft | 356 kts | 137° |
| 2026-04-26 11:13 | 39.49656 | 15.56216 | 23311 ft | 355 kts | 137° |
| 2026-04-26 11:14 | 39.47788 | 15.58285 | 22922 ft | 352 kts | 137° |
| 2026-04-26 11:14 | 39.45936 | 15.60334 | 22543 ft | 349 kts | 137° |
| 2026-04-26 11:14 | 39.44099 | 15.62364 | 22201 ft | 346 kts | 137° |
| 2026-04-26 11:14 | 39.42866 | 15.63727 | 21952 ft | 344 kts | 137° |
| 2026-04-26 11:15 | 39.40469 | 15.66372 | 21483 ft | 340 kts | 137° |
| 2026-04-26 11:15 | 39.38677 | 15.68349 | 21136 ft | 338 kts | 137° |
| 2026-04-26 11:15 | 39.36896 | 15.70313 | 20785 ft | 335 kts | 137° |
| 2026-04-26 11:15 | 39.35129 | 15.72258 | 20442 ft | 333 kts | 137° |
| 2026-04-26 11:16 | 39.33372 | 15.74193 | 20099 ft | 331 kts | 137° |
| 2026-04-26 11:16 | 39.31628 | 15.76111 | 19759 ft | 328 kts | 137° |
| 2026-04-26 11:16 | 39.29895 | 15.78017 | 19406 ft | 327 kts | 137° |
| 2026-04-26 11:16 | 39.28167 | 15.79915 | 19085 ft | 325 kts | 138° |
| 2026-04-26 11:17 | 39.26441 | 15.81802 | 18703 ft | 325 kts | 138° |
| 2026-04-26 11:17 | 39.24721 | 15.83683 | 18343 ft | 323 kts | 137° |
| 2026-04-26 11:17 | 39.23010 | 15.85553 | 17981 ft | 321 kts | 138° |
| 2026-04-26 11:17 | 39.21310 | 15.87410 | 17638 ft | 319 kts | 138° |
| 2026-04-26 11:18 | 39.19682 | 15.89328 | 17254 ft | 316 kts | 133° |
| 2026-04-26 11:18 | 39.18146 | 15.91337 | 16934 ft | 313 kts | 133° |
| 2026-04-26 11:18 | 39.16637 | 15.93289 | 16624 ft | 310 kts | 133° |
| 2026-04-26 11:18 | 39.15114 | 15.95243 | 16304 ft | 308 kts | 133° |
| 2026-04-26 11:19 | 39.13599 | 15.97180 | 15969 ft | 306 kts | 133° |
| 2026-04-26 11:19 | 39.12095 | 15.99099 | 15657 ft | 303 kts | 133° |
| 2026-04-26 11:19 | 39.10600 | 16.01004 | 15337 ft | 301 kts | 133° |
| 2026-04-26 11:19 | 39.09114 | 16.02895 | 15022 ft | 299 kts | 133° |
| 2026-04-26 11:20 | 39.07637 | 16.04774 | 14699 ft | 298 kts | 133° |
| 2026-04-26 11:20 | 39.06664 | 16.06010 | 14488 ft | 297 kts | 133° |
| 2026-04-26 11:20 | 39.04708 | 16.08495 | 14075 ft | 295 kts | 133° |
| 2026-04-26 11:20 | 39.03252 | 16.10343 | 13730 ft | 293 kts | 133° |
| 2026-04-26 11:21 | 39.01802 | 16.12183 | 13389 ft | 293 kts | 134° |
| 2026-04-26 11:21 | 39.00843 | 16.13399 | 13174 ft | 292 kts | 133° |
| 2026-04-26 11:21 | 38.98933 | 16.15819 | 12762 ft | 290 kts | 133° |
| 2026-04-26 11:21 | 38.97500 | 16.17635 | 12443 ft | 288 kts | 133° |
| 2026-04-26 11:22 | 38.96078 | 16.19433 | 12140 ft | 286 kts | 133° |
| 2026-04-26 11:22 | 38.94669 | 16.21216 | 11851 ft | 283 kts | 133° |
| 2026-04-26 11:22 | 38.93387 | 16.22836 | 11570 ft | 282 kts | 133° |
| 2026-04-26 11:22 | 38.91990 | 16.24602 | 11271 ft | 281 kts | 133° |
| 2026-04-26 11:23 | 38.90618 | 16.26384 | 10961 ft | 279 kts | 127° |
| 2026-04-26 11:23 | 38.89910 | 16.27752 | 10741 ft | 277 kts | 116° |
| 2026-04-26 11:23 | 38.88991 | 16.29921 | 10448 ft | 276 kts | 117° |
| 2026-04-26 11:23 | 38.88071 | 16.32068 | 10220 ft | 273 kts | 117° |
| 2026-04-26 11:24 | 38.87159 | 16.34192 | 9928 ft | 271 kts | 117° |
| 2026-04-26 11:24 | 38.86249 | 16.36307 | 9612 ft | 271 kts | 117° |
| 2026-04-26 11:24 | 38.85339 | 16.38421 | 9318 ft | 270 kts | 117° |
| 2026-04-26 11:24 | 38.84431 | 16.40529 | 9015 ft | 269 kts | 117° |
| 2026-04-26 11:25 | 38.83527 | 16.42625 | 8728 ft | 268 kts | 117° |
| 2026-04-26 11:25 | 38.82624 | 16.44717 | 8437 ft | 267 kts | 117° |
| 2026-04-26 11:25 | 38.81725 | 16.46796 | 8150 ft | 266 kts | 117° |
| 2026-04-26 11:25 | 38.80834 | 16.48857 | 7864 ft | 264 kts | 117° |
| 2026-04-26 11:26 | 38.79948 | 16.50905 | 7588 ft | 262 kts | 117° |
| 2026-04-26 11:26 | 38.79064 | 16.52951 | 7316 ft | 262 kts | 116° |
| 2026-04-26 11:26 | 38.78454 | 16.55122 | 6995 ft | 259 kts | 97° |
| 2026-04-26 11:26 | 38.78177 | 16.57392 | 6756 ft | 257 kts | 97° |
| 2026-04-26 11:27 | 38.77902 | 16.59625 | 6625 ft | 250 kts | 96° |
| 2026-04-26 11:27 | 38.77928 | 16.61804 | 6312 ft | 245 kts | 72° |
| 2026-04-26 11:27 | 38.78757 | 16.63674 | 6035 ft | 240 kts | 45° |
| 2026-04-26 11:27 | 38.80127 | 16.64823 | 6010 ft | 239 kts | 18° |
| 2026-04-26 11:28 | 38.81780 | 16.65013 | 6000 ft | 243 kts | 351° |
| 2026-04-26 11:28 | 38.83343 | 16.64213 | 6002 ft | 246 kts | 328° |
| 2026-04-26 11:28 | 38.84742 | 16.62935 | 5995 ft | 248 kts | 322° |
| 2026-04-26 11:28 | 38.85820 | 16.61210 | 5677 ft | 252 kts | 297° |
| 2026-04-26 11:29 | 38.86298 | 16.59053 | 5362 ft | 253 kts | 282° |
| 2026-04-26 11:29 | 38.86610 | 16.56855 | 4993 ft | 247 kts | 281° |
| 2026-04-26 11:29 | 38.86897 | 16.54708 | 4641 ft | 242 kts | 280° |
| 2026-04-26 11:29 | 38.87192 | 16.52611 | 4273 ft | 234 kts | 280° |
| 2026-04-26 11:30 | 38.87455 | 16.50600 | 3937 ft | 223 kts | 279° |
| 2026-04-26 11:30 | 38.87613 | 16.49294 | 3733 ft | 215 kts | 278° |
| 2026-04-26 11:30 | 38.87901 | 16.46841 | 3349 ft | 208 kts | 278° |
| 2026-04-26 11:30 | 38.88115 | 16.45019 | 3107 ft | 205 kts | 278° |
| 2026-04-26 11:31 | 38.88319 | 16.43276 | 2834 ft | 187 kts | 278° |
| 2026-04-26 11:31 | 38.88516 | 16.41649 | 2545 ft | 182 kts | 279° |
| 2026-04-26 11:31 | 38.88719 | 16.40062 | 2252 ft | 179 kts | 277° |
| 2026-04-26 11:31 | 38.88890 | 16.38488 | 1993 ft | 177 kts | 277° |
| 2026-04-26 11:32 | 38.89063 | 16.36935 | 1753 ft | 172 kts | 276° |
| 2026-04-26 11:32 | 38.89230 | 16.35469 | 1504 ft | 160 kts | 277° |
| 2026-04-26 11:32 | 38.89386 | 16.34123 | 1307 ft | 147 kts | 277° |
| 2026-04-26 11:32 | 38.89531 | 16.32875 | 1104 ft | 139 kts | 277° |
| 2026-04-26 11:33 | 38.89674 | 16.31646 | 930 ft | 139 kts | 276° |
| 2026-04-26 11:33 | 38.89819 | 16.30407 | 778 ft | 141 kts | 278° |
| 2026-04-26 11:33 | 38.89963 | 16.29167 | 588 ft | 139 kts | 279° |
| 2026-04-26 11:33 | 38.90102 | 16.27945 | 408 ft | 137 kts | 278° |
| 2026-04-26 11:34 | 38.90253 | 16.26734 | 231 ft | 137 kts | 278° |
| 2026-04-26 11:34 | 38.90390 | 16.25536 | 51 ft | 134 kts | 277° |
| 2026-04-26 11:34 | 38.90502 | 16.24560 | 35 ft | 75 kts | 279° |
| 2026-04-26 11:34 | 38.90559 | 16.24075 | 31 ft | 47 kts | 278° |
| 2026-04-26 11:35 | 38.90619 | 16.23694 | 35 ft | 24 kts | 295° |
| 2026-04-26 11:35 | 38.90679 | 16.23578 | 35 ft | 15 kts | 307° |
| 2026-04-26 11:35 | 38.90742 | 16.23487 | 36 ft | 13 kts | 333° |
| 2026-04-26 11:35 | 38.90831 | 16.23526 | 34 ft | 16 kts | 62° |
| 2026-04-26 11:36 | 38.90828 | 16.23674 | 34 ft | 18 kts | 99° |
| 2026-04-26 11:36 | 38.90807 | 16.23835 | 34 ft | 19 kts | 99° |
| 2026-04-26 11:36 | 38.90785 | 16.24013 | 34 ft | 22 kts | 99° |
| 2026-04-26 11:36 | 38.90793 | 16.24183 | 34 ft | 16 kts | 59° |
| 2026-04-26 11:37 | 38.90825 | 16.24293 | 34 ft | 14 kts | 92° |
| 2026-04-26 11:37 | 38.90845 | 16.24350 | 34 ft | 7 kts | 15° |
| 2026-04-26 11:37 | 38.90878 | 16.24362 | 34 ft | 0 kts | 34° |
| 2026-04-26 11:37 | 38.90883 | 16.24369 | 34 ft | 1 kts | 49° |
| 2026-04-26 11:38 | 38.90883 | 16.24371 | 34 ft | 0 kts | 54° |